Weather at Dresden Airport

Public forecast

Using degrees Celsius for public forecast. Weather courtesy of forecast.io.

Current aviation weather report (METAR) for Dresden Airport

Report is more than 6 hours old.

2022/11/14 15:20 (retrieved 2 years ago)

EDDC 141520Z AUTO 16010KT CAVOK 09/05 Q1017 TEMPO 16015G25KT

Aviation forecast (TAF) for Dresden Airport

Forecast is more than 12 hours old.

2023/02/22 18:27 (retrieved 1 year ago)

TAF EDDC 221700Z 2218/2318 15008KT 9999 SCT030 BECMG 2309/2311 22006KT